sensor_id;sensor_type;location;lat;lon;timestamp;P1;durP1;ratioP1;P2;durP2;ratioP2
68872;SDS011;55907;50.806;12.882;2023-08-06T00:02:36;545.6;;;505.1;;
68872;SDS011;55907;50.806;12.882;2023-08-06T00:05:40;543.6;;;502.4;;
68872;SDS011;55907;50.806;12.882;2023-08-06T00:08:39;545.8;;;503.9;;
68872;SDS011;55907;50.806;12.882;2023-08-06T00:11:41;540.6;;;498.3;;
68872;SDS011;55907;50.806;12.882;2023-08-06T00:14:42;547.4;;;503.9;;
68872;SDS011;55907;50.806;12.882;2023-08-06T00:17:44;545.3;;;500.8;;
68872;SDS011;55907;50.806;12.882;2023-08-06T00:20:45;544.0;;;498.6;;
68872;SDS011;55907;50.806;12.882;2023-08-06T00:23:47;538.5;;;492.4;;
68872;SDS011;55907;50.806;12.882;2023-08-06T00:26:48;536.3;;;489.6;;
68872;SDS011;55907;50.806;12.882;2023-08-06T00:29:49;536.7;;;489.3;;
68872;SDS011;55907;50.806;12.882;2023-08-06T00:32:51;540.5;;;491.8;;
68872;SDS011;55907;50.806;12.882;2023-08-06T00:35:52;545.8;;;495.7;;
68872;SDS011;55907;50.806;12.882;2023-08-06T00:38:54;545.6;;;494.5;;
68872;SDS011;55907;50.806;12.882;2023-08-06T00:41:55;552.8;;;500.6;;
68872;SDS011;55907;50.806;12.882;2023-08-06T00:44:57;547.7;;;495.4;;
68872;SDS011;55907;50.806;12.882;2023-08-06T00:47:58;557.7;;;504.5;;
68872;SDS011;55907;50.806;12.882;2023-08-06T00:51:00;551.3;;;498.4;;
68872;SDS011;55907;50.806;12.882;2023-08-06T00:54:01;544.4;;;491.8;;
68872;SDS011;55907;50.806;12.882;2023-08-06T00:57:03;535.6;;;484.0;;
68872;SDS011;55907;50.806;12.882;2023-08-06T01:00:04;541.1;;;489.1;;
68872;SDS011;55907;50.806;12.882;2023-08-06T01:03:05;554.6;;;501.7;;
68872;SDS011;55907;50.806;12.882;2023-08-06T01:06:07;559.1;;;505.8;;
68872;SDS011;55907;50.806;12.882;2023-08-06T01:09:11;562.5;;;509.0;;
68872;SDS011;55907;50.806;12.882;2023-08-06T01:12:12;573.3;;;519.0;;
68872;SDS011;55907;50.806;12.882;2023-08-06T01:15:13;583.6;;;529.0;;
68872;SDS011;55907;50.806;12.882;2023-08-06T01:18:13;595.9;;;540.3;;
68872;SDS011;55907;50.806;12.882;2023-08-06T01:21:14;590.4;;;535.9;;
68872;SDS011;55907;50.806;12.882;2023-08-06T01:24:16;582.7;;;529.1;;
68872;SDS011;55907;50.806;12.882;2023-08-06T01:27:19;588.6;;;534.5;;
68872;SDS011;55907;50.806;12.882;2023-08-06T01:30:20;579.0;;;526.1;;
68872;SDS011;55907;50.806;12.882;2023-08-06T01:33:21;560.0;;;508.3;;
68872;SDS011;55907;50.806;12.882;2023-08-06T01:36:21;562.7;;;510.9;;
68872;SDS011;55907;50.806;12.882;2023-08-06T01:39:23;546.4;;;496.0;;
68872;SDS011;55907;50.806;12.882;2023-08-06T01:42:24;552.4;;;501.2;;
68872;SDS011;55907;50.806;12.882;2023-08-06T01:45:26;548.1;;;497.8;;
68872;SDS011;55907;50.806;12.882;2023-08-06T01:48:27;552.3;;;502.1;;
68872;SDS011;55907;50.806;12.882;2023-08-06T01:51:29;557.7;;;506.9;;
68872;SDS011;55907;50.806;12.882;2023-08-06T01:54:30;561.5;;;510.7;;
68872;SDS011;55907;50.806;12.882;2023-08-06T01:57:31;548.3;;;498.1;;
68872;SDS011;55907;50.806;12.882;2023-08-06T02:00:33;555.1;;;504.5;;
68872;SDS011;55907;50.806;12.882;2023-08-06T02:03:34;549.1;;;499.3;;
68872;SDS011;55907;50.806;12.882;2023-08-06T02:06:36;543.3;;;493.7;;
68872;SDS011;55907;50.806;12.882;2023-08-06T02:09:37;559.5;;;508.8;;
68872;SDS011;55907;50.806;12.882;2023-08-06T02:12:39;538.1;;;488.8;;
68872;SDS011;55907;50.806;12.882;2023-08-06T02:15:42;532.5;;;484.1;;
68872;SDS011;55907;50.806;12.882;2023-08-06T02:18:42;528.2;;;480.3;;
68872;SDS011;55907;50.806;12.882;2023-08-06T02:21:43;518.5;;;471.4;;
68872;SDS011;55907;50.806;12.882;2023-08-06T02:24:44;503.7;;;457.7;;
68872;SDS011;55907;50.806;12.882;2023-08-06T02:27:46;504.5;;;458.5;;
68872;SDS011;55907;50.806;12.882;2023-08-06T02:30:49;498.3;;;453.2;;
68872;SDS011;55907;50.806;12.882;2023-08-06T02:33:49;501.7;;;456.8;;
68872;SDS011;55907;50.806;12.882;2023-08-06T02:36:50;499.7;;;455.2;;
68872;SDS011;55907;50.806;12.882;2023-08-06T02:39:52;490.5;;;446.8;;
68872;SDS011;55907;50.806;12.882;2023-08-06T02:42:53;475.9;;;433.8;;
68872;SDS011;55907;50.806;12.882;2023-08-06T02:45:56;481.2;;;439.0;;
68872;SDS011;55907;50.806;12.882;2023-08-06T02:48:56;475.4;;;433.4;;
68872;SDS011;55907;50.806;12.882;2023-08-06T02:51:58;467.0;;;425.8;;
68872;SDS011;55907;50.806;12.882;2023-08-06T02:54:59;468.9;;;427.6;;
68872;SDS011;55907;50.806;12.882;2023-08-06T02:58:00;462.5;;;421.7;;
68872;SDS011;55907;50.806;12.882;2023-08-06T03:01:02;451.9;;;412.1;;
68872;SDS011;55907;50.806;12.882;2023-08-06T03:04:03;436.7;;;398.1;;
68872;SDS011;55907;50.806;12.882;2023-08-06T03:07:05;434.0;;;395.7;;
68872;SDS011;55907;50.806;12.882;2023-08-06T03:10:06;431.4;;;393.1;;
68872;SDS011;55907;50.806;12.882;2023-08-06T03:13:08;420.7;;;383.4;;
68872;SDS011;55907;50.806;12.882;2023-08-06T03:16:09;409.3;;;372.8;;
68872;SDS011;55907;50.806;12.882;2023-08-06T03:19:11;407.3;;;370.7;;
68872;SDS011;55907;50.806;12.882;2023-08-06T03:22:12;406.1;;;369.9;;
68872;SDS011;55907;50.806;12.882;2023-08-06T03:25:13;387.4;;;353.0;;
68872;SDS011;55907;50.806;12.882;2023-08-06T03:28:15;385.9;;;351.9;;
68872;SDS011;55907;50.806;12.882;2023-08-06T03:31:16;373.5;;;340.4;;
68872;SDS011;55907;50.806;12.882;2023-08-06T03:34:18;365.3;;;333.1;;
68872;SDS011;55907;50.806;12.882;2023-08-06T03:37:19;362.6;;;330.2;;
68872;SDS011;55907;50.806;12.882;2023-08-06T03:40:21;347.9;;;317.4;;
68872;SDS011;55907;50.806;12.882;2023-08-06T03:43:22;341.3;;;311.7;;
68872;SDS011;55907;50.806;12.882;2023-08-06T03:46:24;331.1;;;302.5;;
68872;SDS011;55907;50.806;12.882;2023-08-06T03:49:25;314.2;;;287.3;;
68872;SDS011;55907;50.806;12.882;2023-08-06T03:52:27;304.8;;;279.4;;
68872;SDS011;55907;50.806;12.882;2023-08-06T03:58:30;295.2;;;271.9;;
68872;SDS011;55907;50.806;12.882;2023-08-06T04:01:31;276.2;;;254.8;;
68872;SDS011;55907;50.806;12.882;2023-08-06T04:04:33;273.2;;;252.6;;
68872;SDS011;55907;50.806;12.882;2023-08-06T04:07:34;270.2;;;250.1;;
68872;SDS011;55907;50.806;12.882;2023-08-06T04:10:35;284.0;;;263.5;;
68872;SDS011;55907;50.806;12.882;2023-08-06T04:13:37;308.3;;;287.2;;
68872;SDS011;55907;50.806;12.882;2023-08-06T04:16:38;343.8;;;321.6;;
68872;SDS011;55907;50.806;12.882;2023-08-06T04:19:40;410.4;;;384.7;;
68872;SDS011;55907;50.806;12.882;2023-08-06T04:22:41;498.8;;;467.4;;
68872;SDS011;55907;50.806;12.882;2023-08-06T04:25:43;510.9;;;478.7;;
68872;SDS011;55907;50.806;12.882;2023-08-06T04:28:44;496.8;;;465.2;;
68872;SDS011;55907;50.806;12.882;2023-08-06T04:31:46;477.4;;;446.7;;
68872;SDS011;55907;50.806;12.882;2023-08-06T04:34:47;469.8;;;440.1;;
68872;SDS011;55907;50.806;12.882;2023-08-06T04:37:49;489.6;;;458.8;;
68872;SDS011;55907;50.806;12.882;2023-08-06T04:40:50;530.8;;;497.2;;
68872;SDS011;55907;50.806;12.882;2023-08-06T04:43:52;579.4;;;541.6;;
68872;SDS011;55907;50.806;12.882;2023-08-06T04:46:53;605.9;;;565.1;;
68872;SDS011;55907;50.806;12.882;2023-08-06T04:49:55;630.9;;;587.0;;
68872;SDS011;55907;50.806;12.882;2023-08-06T04:52:56;681.1;;;632.8;;
68872;SDS011;55907;50.806;12.882;2023-08-06T04:55:57;703.3;;;652.6;;
68872;SDS011;55907;50.806;12.882;2023-08-06T04:58:59;746.7;;;691.8;;
68872;SDS011;55907;50.806;12.882;2023-08-06T05:02:00;766.0;;;708.9;;
68872;SDS011;55907;50.806;12.882;2023-08-06T05:05:02;765.5;;;707.8;;
68872;SDS011;55907;50.806;12.882;2023-08-06T05:08:03;775.6;;;717.1;;
68872;SDS011;55907;50.806;12.882;2023-08-06T05:11:05;775.5;;;717.3;;
68872;SDS011;55907;50.806;12.882;2023-08-06T05:14:06;771.8;;;713.9;;
68872;SDS011;55907;50.806;12.882;2023-08-06T05:17:08;761.0;;;703.8;;
68872;SDS011;55907;50.806;12.882;2023-08-06T05:20:10;754.2;;;697.5;;
68872;SDS011;55907;50.806;12.882;2023-08-06T05:23:11;746.7;;;690.7;;
68872;SDS011;55907;50.806;12.882;2023-08-06T05:26:12;720.3;;;666.1;;
68872;SDS011;55907;50.806;12.882;2023-08-06T05:29:14;716.7;;;662.9;;
68872;SDS011;55907;50.806;12.882;2023-08-06T05:32:15;701.0;;;648.3;;
68872;SDS011;55907;50.806;12.882;2023-08-06T05:35:17;693.1;;;640.7;;
68872;SDS011;55907;50.806;12.882;2023-08-06T05:38:18;688.4;;;636.5;;
68872;SDS011;55907;50.806;12.882;2023-08-06T05:41:19;685.1;;;633.6;;
68872;SDS011;55907;50.806;12.882;2023-08-06T05:44:21;681.6;;;630.2;;
68872;SDS011;55907;50.806;12.882;2023-08-06T05:47:22;697.0;;;644.3;;
68872;SDS011;55907;50.806;12.882;2023-08-06T05:50:24;687.2;;;635.3;;
68872;SDS011;55907;50.806;12.882;2023-08-06T05:53:25;698.2;;;645.4;;
68872;SDS011;55907;50.806;12.882;2023-08-06T05:56:27;713.0;;;659.2;;
68872;SDS011;55907;50.806;12.882;2023-08-06T05:59:28;704.0;;;650.6;;
68872;SDS011;55907;50.806;12.882;2023-08-06T06:02:30;727.1;;;672.2;;
68872;SDS011;55907;50.806;12.882;2023-08-06T06:05:31;740.6;;;684.7;;
68872;SDS011;55907;50.806;12.882;2023-08-06T06:08:33;743.5;;;687.5;;
68872;SDS011;55907;50.806;12.882;2023-08-06T06:11:34;757.8;;;700.4;;
68872;SDS011;55907;50.806;12.882;2023-08-06T06:14:35;754.4;;;696.9;;
68872;SDS011;55907;50.806;12.882;2023-08-06T06:17:37;762.0;;;704.0;;
68872;SDS011;55907;50.806;12.882;2023-08-06T06:20:38;770.7;;;711.5;;
68872;SDS011;55907;50.806;12.882;2023-08-06T06:23:40;765.4;;;706.2;;
68872;SDS011;55907;50.806;12.882;2023-08-06T06:26:41;769.4;;;709.5;;
68872;SDS011;55907;50.806;12.882;2023-08-06T06:29:43;767.3;;;707.7;;
68872;SDS011;55907;50.806;12.882;2023-08-06T06:32:44;770.3;;;710.3;;
68872;SDS011;55907;50.806;12.882;2023-08-06T06:35:46;770.7;;;710.5;;
68872;SDS011;55907;50.806;12.882;2023-08-06T06:38:47;772.8;;;711.6;;
68872;SDS011;55907;50.806;12.882;2023-08-06T06:41:49;772.0;;;710.6;;
68872;SDS011;55907;50.806;12.882;2023-08-06T06:44:50;777.8;;;716.6;;
68872;SDS011;55907;50.806;12.882;2023-08-06T06:47:52;774.2;;;712.4;;
68872;SDS011;55907;50.806;12.882;2023-08-06T06:50:53;780.3;;;717.9;;
68872;SDS011;55907;50.806;12.882;2023-08-06T06:53:55;775.4;;;713.3;;
68872;SDS011;55907;50.806;12.882;2023-08-06T06:56:56;775.5;;;713.6;;
68872;SDS011;55907;50.806;12.882;2023-08-06T06:59:57;783.6;;;720.7;;
68872;SDS011;55907;50.806;12.882;2023-08-06T07:02:59;776.4;;;713.8;;
68872;SDS011;55907;50.806;12.882;2023-08-06T07:06:00;784.5;;;721.0;;
68872;SDS011;55907;50.806;12.882;2023-08-06T07:09:02;790.9;;;726.8;;
68872;SDS011;55907;50.806;12.882;2023-08-06T07:12:04;790.2;;;725.7;;
68872;SDS011;55907;50.806;12.882;2023-08-06T07:15:06;791.9;;;728.0;;
68872;SDS011;55907;50.806;12.882;2023-08-06T07:18:06;793.2;;;729.4;;
68872;SDS011;55907;50.806;12.882;2023-08-06T07:21:08;786.5;;;722.9;;
68872;SDS011;55907;50.806;12.882;2023-08-06T07:24:09;782.6;;;719.9;;
68872;SDS011;55907;50.806;12.882;2023-08-06T07:27:10;782.0;;;719.3;;
68872;SDS011;55907;50.806;12.882;2023-08-06T07:30:12;789.1;;;725.1;;
68872;SDS011;55907;50.806;12.882;2023-08-06T07:33:13;784.3;;;720.3;;
68872;SDS011;55907;50.806;12.882;2023-08-06T07:36:15;793.7;;;728.7;;
68872;SDS011;55907;50.806;12.882;2023-08-06T07:39:16;795.2;;;729.9;;
68872;SDS011;55907;50.806;12.882;2023-08-06T07:42:18;791.0;;;726.3;;
68872;SDS011;55907;50.806;12.882;2023-08-06T07:45:19;799.6;;;734.0;;
68872;SDS011;55907;50.806;12.882;2023-08-06T07:48:21;814.9;;;746.7;;
68872;SDS011;55907;50.806;12.882;2023-08-06T07:51:22;810.5;;;743.0;;
68872;SDS011;55907;50.806;12.882;2023-08-06T07:54:23;806.9;;;739.1;;
68872;SDS011;55907;50.806;12.882;2023-08-06T07:57:25;817.6;;;749.1;;
68872;SDS011;55907;50.806;12.882;2023-08-06T08:00:26;818.4;;;748.3;;
68872;SDS011;55907;50.806;12.882;2023-08-06T08:03:28;822.2;;;751.7;;
68872;SDS011;55907;50.806;12.882;2023-08-06T08:06:29;817.8;;;747.7;;
68872;SDS011;55907;50.806;12.882;2023-08-06T08:09:31;820.7;;;749.2;;
68872;SDS011;55907;50.806;12.882;2023-08-06T08:12:32;826.1;;;754.7;;
68872;SDS011;55907;50.806;12.882;2023-08-06T08:15:33;823.5;;;751.7;;
68872;SDS011;55907;50.806;12.882;2023-08-06T08:18:35;818.4;;;746.9;;
68872;SDS011;55907;50.806;12.882;2023-08-06T08:21:36;816.2;;;745.4;;
68872;SDS011;55907;50.806;12.882;2023-08-06T08:24:38;816.3;;;745.7;;
68872;SDS011;55907;50.806;12.882;2023-08-06T08:27:39;803.0;;;732.9;;
68872;SDS011;55907;50.806;12.882;2023-08-06T08:30:41;787.6;;;720.2;;
68872;SDS011;55907;50.806;12.882;2023-08-06T08:33:42;781.1;;;714.2;;
68872;SDS011;55907;50.806;12.882;2023-08-06T08:36:44;784.8;;;717.8;;
68872;SDS011;55907;50.806;12.882;2023-08-06T08:39:45;780.9;;;714.3;;
68872;SDS011;55907;50.806;12.882;2023-08-06T08:42:46;776.6;;;710.2;;
68872;SDS011;55907;50.806;12.882;2023-08-06T08:45:49;772.7;;;707.1;;
68872;SDS011;55907;50.806;12.882;2023-08-06T08:48:49;775.2;;;710.0;;
68872;SDS011;55907;50.806;12.882;2023-08-06T08:51:51;770.5;;;706.3;;
68872;SDS011;55907;50.806;12.882;2023-08-06T08:54:52;747.8;;;686.0;;
68872;SDS011;55907;50.806;12.882;2023-08-06T08:57:53;749.1;;;687.6;;
68872;SDS011;55907;50.806;12.882;2023-08-06T09:00:55;712.7;;;654.2;;
68872;SDS011;55907;50.806;12.882;2023-08-06T09:03:56;661.6;;;606.1;;
68872;SDS011;55907;50.806;12.882;2023-08-06T09:06:58;635.0;;;581.3;;
68872;SDS011;55907;50.806;12.882;2023-08-06T09:10:00;615.7;;;562.5;;
68872;SDS011;55907;50.806;12.882;2023-08-06T09:13:01;625.0;;;570.8;;
68872;SDS011;55907;50.806;12.882;2023-08-06T09:16:02;624.0;;;570.6;;
68872;SDS011;55907;50.806;12.882;2023-08-06T09:19:07;630.3;;;578.1;;
68872;SDS011;55907;50.806;12.882;2023-08-06T09:22:05;625.8;;;575.0;;
68872;SDS011;55907;50.806;12.882;2023-08-06T09:25:07;593.0;;;544.7;;
68872;SDS011;55907;50.806;12.882;2023-08-06T09:28:08;556.6;;;511.8;;
68872;SDS011;55907;50.806;12.882;2023-08-06T09:31:09;513.5;;;471.7;;
68872;SDS011;55907;50.806;12.882;2023-08-06T09:34:11;453.4;;;415.0;;
68872;SDS011;55907;50.806;12.882;2023-08-06T09:37:12;476.7;;;437.8;;
68872;SDS011;55907;50.806;12.882;2023-08-06T09:43:15;540.2;;;497.9;;
68872;SDS011;55907;50.806;12.882;2023-08-06T09:46:16;542.5;;;500.0;;
68872;SDS011;55907;50.806;12.882;2023-08-06T09:49:18;533.9;;;491.6;;
68872;SDS011;55907;50.806;12.882;2023-08-06T09:52:19;508.6;;;467.5;;
68872;SDS011;55907;50.806;12.882;2023-08-06T09:55:20;463.0;;;424.6;;
68872;SDS011;55907;50.806;12.882;2023-08-06T09:58:22;429.1;;;393.5;;
68872;SDS011;55907;50.806;12.882;2023-08-06T10:01:23;401.7;;;369.2;;
68872;SDS011;55907;50.806;12.882;2023-08-06T10:04:25;418.8;;;385.4;;
68872;SDS011;55907;50.806;12.882;2023-08-06T10:07:26;473.9;;;436.6;;
68872;SDS011;55907;50.806;12.882;2023-08-06T10:10:27;561.7;;;515.5;;
68872;SDS011;55907;50.806;12.882;2023-08-06T10:13:29;663.2;;;606.2;;
68872;SDS011;55907;50.806;12.882;2023-08-06T10:16:30;677.8;;;615.1;;
68872;SDS011;55907;50.806;12.882;2023-08-06T10:19:32;706.5;;;639.4;;
68872;SDS011;55907;50.806;12.882;2023-08-06T10:22:33;773.3;;;702.3;;
68872;SDS011;55907;50.806;12.882;2023-08-06T10:25:35;805.3;;;733.6;;
68872;SDS011;55907;50.806;12.882;2023-08-06T10:28:36;833.2;;;759.4;;
68872;SDS011;55907;50.806;12.882;2023-08-06T10:37:40;848.1;;;768.6;;
68872;SDS011;55907;50.806;12.882;2023-08-06T10:40:47;829.2;;;751.0;;
68872;SDS011;55907;50.806;12.882;2023-08-06T10:43:43;827.5;;;750.3;;
68872;SDS011;55907;50.806;12.882;2023-08-06T10:46:44;789.9;;;718.4;;
68872;SDS011;55907;50.806;12.882;2023-08-06T10:49:45;780.4;;;712.0;;
68872;SDS011;55907;50.806;12.882;2023-08-06T10:52:47;748.3;;;685.4;;
68872;SDS011;55907;50.806;12.882;2023-08-06T10:55:48;713.3;;;653.1;;
68872;SDS011;55907;50.806;12.882;2023-08-06T10:58:50;688.6;;;630.0;;
68872;SDS011;55907;50.806;12.882;2023-08-06T11:01:51;677.3;;;621.0;;
68872;SDS011;55907;50.806;12.882;2023-08-06T11:04:52;675.3;;;621.5;;
68872;SDS011;55907;50.806;12.882;2023-08-06T11:07:54;633.4;;;583.2;;
68872;SDS011;55907;50.806;12.882;2023-08-06T11:10:55;583.4;;;537.1;;
68872;SDS011;55907;50.806;12.882;2023-08-06T11:13:57;574.6;;;531.7;;
68872;SDS011;55907;50.806;12.882;2023-08-06T11:16:58;557.8;;;516.7;;
68872;SDS011;55907;50.806;12.882;2023-08-06T11:19:59;542.0;;;503.7;;
68872;SDS011;55907;50.806;12.882;2023-08-06T11:23:01;549.6;;;511.8;;
68872;SDS011;55907;50.806;12.882;2023-08-06T11:26:02;591.2;;;550.2;;
68872;SDS011;55907;50.806;12.882;2023-08-06T11:29:04;593.5;;;552.7;;
68872;SDS011;55907;50.806;12.882;2023-08-06T11:32:05;621.5;;;578.8;;
68872;SDS011;55907;50.806;12.882;2023-08-06T11:35:09;628.0;;;584.8;;
68872;SDS011;55907;50.806;12.882;2023-08-06T11:38:08;644.3;;;598.3;;
68872;SDS011;55907;50.806;12.882;2023-08-06T11:41:09;677.6;;;626.2;;
68872;SDS011;55907;50.806;12.882;2023-08-06T11:44:11;722.8;;;665.0;;
68872;SDS011;55907;50.806;12.882;2023-08-06T11:47:13;781.4;;;716.4;;
68872;SDS011;55907;50.806;12.882;2023-08-06T11:50:21;882.3;;;803.4;;
68872;SDS011;55907;50.806;12.882;2023-08-06T11:53:15;910.8;;;826.8;;
68872;SDS011;55907;50.806;12.882;2023-08-06T11:56:16;927.1;;;840.2;;
68872;SDS011;55907;50.806;12.882;2023-08-06T11:59:17;953.8;;;864.2;;
68872;SDS011;55907;50.806;12.882;2023-08-06T12:02:20;949.8;;;859.5;;
68872;SDS011;55907;50.806;12.882;2023-08-06T12:05:20;946.1;;;855.9;;
68872;SDS011;55907;50.806;12.882;2023-08-06T12:08:25;946.3;;;855.7;;
68872;SDS011;55907;50.806;12.882;2023-08-06T12:11:23;937.6;;;847.9;;
68872;SDS011;55907;50.806;12.882;2023-08-06T12:14:24;934.8;;;844.8;;
68872;SDS011;55907;50.806;12.882;2023-08-06T12:17:26;921.3;;;833.8;;
68872;SDS011;55907;50.806;12.882;2023-08-06T12:20:27;908.7;;;822.5;;
68872;SDS011;55907;50.806;12.882;2023-08-06T12:23:28;905.9;;;820.3;;
68872;SDS011;55907;50.806;12.882;2023-08-06T12:26:30;916.1;;;827.8;;
68872;SDS011;55907;50.806;12.882;2023-08-06T12:29:31;917.3;;;828.2;;
68872;SDS011;55907;50.806;12.882;2023-08-06T12:32:33;891.2;;;807.1;;
68872;SDS011;55907;50.806;12.882;2023-08-06T12:35:34;875.1;;;795.5;;
68872;SDS011;55907;50.806;12.882;2023-08-06T12:38:35;859.7;;;784.1;;
68872;SDS011;55907;50.806;12.882;2023-08-06T12:41:37;841.6;;;770.0;;
68872;SDS011;55907;50.806;12.882;2023-08-06T12:44:38;844.8;;;772.7;;
68872;SDS011;55907;50.806;12.882;2023-08-06T12:47:39;840.8;;;768.0;;
68872;SDS011;55907;50.806;12.882;2023-08-06T12:50:41;821.2;;;750.4;;
68872;SDS011;55907;50.806;12.882;2023-08-06T12:53:42;809.5;;;739.6;;
68872;SDS011;55907;50.806;12.882;2023-08-06T12:56:44;800.3;;;730.7;;
68872;SDS011;55907;50.806;12.882;2023-08-06T12:59:45;776.5;;;709.9;;
68872;SDS011;55907;50.806;12.882;2023-08-06T13:02:46;765.5;;;701.3;;
68872;SDS011;55907;50.806;12.882;2023-08-06T13:05:47;769.0;;;706.0;;
68872;SDS011;55907;50.806;12.882;2023-08-06T13:08:49;701.5;;;645.6;;
68872;SDS011;55907;50.806;12.882;2023-08-06T13:11:50;635.9;;;586.2;;
68872;SDS011;55907;50.806;12.882;2023-08-06T13:14:52;599.3;;;552.9;;
68872;SDS011;55907;50.806;12.882;2023-08-06T13:17:53;606.6;;;560.0;;
68872;SDS011;55907;50.806;12.882;2023-08-06T13:20:55;595.7;;;551.6;;
68872;SDS011;55907;50.806;12.882;2023-08-06T13:23:56;612.6;;;568.8;;
68872;SDS011;55907;50.806;12.882;2023-08-06T13:26:57;625.0;;;579.8;;
68872;SDS011;55907;50.806;12.882;2023-08-06T13:29:58;604.1;;;560.8;;
68872;SDS011;55907;50.806;12.882;2023-08-06T13:33:00;596.6;;;554.0;;
68872;SDS011;55907;50.806;12.882;2023-08-06T13:36:01;609.6;;;566.8;;
68872;SDS011;55907;50.806;12.882;2023-08-06T13:39:02;625.8;;;581.9;;
68872;SDS011;55907;50.806;12.882;2023-08-06T13:42:04;619.7;;;576.1;;
68872;SDS011;55907;50.806;12.882;2023-08-06T13:45:05;645.2;;;599.0;;
68872;SDS011;55907;50.806;12.882;2023-08-06T13:48:07;633.1;;;588.4;;
68872;SDS011;55907;50.806;12.882;2023-08-06T13:51:08;635.1;;;590.1;;
68872;SDS011;55907;50.806;12.882;2023-08-06T13:54:09;627.8;;;583.6;;
68872;SDS011;55907;50.806;12.882;2023-08-06T13:57:11;596.0;;;554.2;;
68872;SDS011;55907;50.806;12.882;2023-08-06T14:00:12;600.2;;;558.4;;
68872;SDS011;55907;50.806;12.882;2023-08-06T14:03:13;586.8;;;546.2;;
68872;SDS011;55907;50.806;12.882;2023-08-06T14:06:15;610.0;;;567.2;;
68872;SDS011;55907;50.806;12.882;2023-08-06T14:09:16;650.6;;;602.8;;
68872;SDS011;55907;50.806;12.882;2023-08-06T14:12:18;667.8;;;616.0;;
68872;SDS011;55907;50.806;12.882;2023-08-06T14:15:19;654.4;;;601.2;;
68872;SDS011;55907;50.806;12.882;2023-08-06T14:18:20;648.3;;;595.5;;
68872;SDS011;55907;50.806;12.882;2023-08-06T14:21:22;695.8;;;640.6;;
68872;SDS011;55907;50.806;12.882;2023-08-06T14:24:23;742.1;;;682.9;;
68872;SDS011;55907;50.806;12.882;2023-08-06T14:27:25;781.8;;;718.3;;
68872;SDS011;55907;50.806;12.882;2023-08-06T14:30:26;798.8;;;733.8;;
68872;SDS011;55907;50.806;12.882;2023-08-06T14:33:27;796.6;;;731.4;;
68872;SDS011;55907;50.806;12.882;2023-08-06T14:36:29;793.3;;;728.7;;
68872;SDS011;55907;50.806;12.882;2023-08-06T14:39:30;776.6;;;714.2;;
68872;SDS011;55907;50.806;12.882;2023-08-06T14:42:31;775.1;;;713.4;;
68872;SDS011;55907;50.806;12.882;2023-08-06T14:45:33;769.0;;;707.5;;
68872;SDS011;55907;50.806;12.882;2023-08-06T14:48:34;767.2;;;705.5;;
68872;SDS011;55907;50.806;12.882;2023-08-06T14:51:36;768.3;;;706.4;;
68872;SDS011;55907;50.806;12.882;2023-08-06T14:54:37;771.0;;;708.0;;
68872;SDS011;55907;50.806;12.882;2023-08-06T14:57:38;768.5;;;705.8;;
68872;SDS011;55907;50.806;12.882;2023-08-06T15:00:40;783.3;;;718.7;;
68872;SDS011;55907;50.806;12.882;2023-08-06T15:03:41;797.1;;;730.8;;
68872;SDS011;55907;50.806;12.882;2023-08-06T15:06:42;807.5;;;740.4;;
68872;SDS011;55907;50.806;12.882;2023-08-06T15:09:44;835.1;;;765.6;;
68872;SDS011;55907;50.806;12.882;2023-08-06T15:12:45;848.3;;;778.1;;
68872;SDS011;55907;50.806;12.882;2023-08-06T15:15:47;820.8;;;753.8;;
68872;SDS011;55907;50.806;12.882;2023-08-06T15:18:48;785.7;;;722.9;;
68872;SDS011;55907;50.806;12.882;2023-08-06T15:21:50;747.5;;;687.5;;
68872;SDS011;55907;50.806;12.882;2023-08-06T15:24:51;732.0;;;674.2;;
68872;SDS011;55907;50.806;12.882;2023-08-06T15:27:52;690.2;;;635.1;;
68872;SDS011;55907;50.806;12.882;2023-08-06T15:30:54;665.2;;;611.7;;
68872;SDS011;55907;50.806;12.882;2023-08-06T15:33:55;657.6;;;603.7;;
68872;SDS011;55907;50.806;12.882;2023-08-06T15:36:56;649.9;;;596.4;;
68872;SDS011;55907;50.806;12.882;2023-08-06T15:39:58;647.3;;;594.2;;
68872;SDS011;55907;50.806;12.882;2023-08-06T15:42:59;649.8;;;596.6;;
68872;SDS011;55907;50.806;12.882;2023-08-06T15:46:00;629.0;;;577.4;;
68872;SDS011;55907;50.806;12.882;2023-08-06T15:49:02;626.1;;;575.2;;
68872;SDS011;55907;50.806;12.882;2023-08-06T15:52:03;612.6;;;563.4;;
68872;SDS011;55907;50.806;12.882;2023-08-06T15:55:05;615.6;;;565.8;;
68872;SDS011;55907;50.806;12.882;2023-08-06T15:58:06;604.4;;;555.2;;
68872;SDS011;55907;50.806;12.882;2023-08-06T16:01:07;605.4;;;555.4;;
68872;SDS011;55907;50.806;12.882;2023-08-06T16:04:09;596.4;;;546.0;;
68872;SDS011;55907;50.806;12.882;2023-08-06T16:07:10;602.2;;;550.3;;
68872;SDS011;55907;50.806;12.882;2023-08-06T16:10:11;592.7;;;540.6;;
68872;SDS011;55907;50.806;12.882;2023-08-06T16:13:13;591.7;;;538.9;;
68872;SDS011;55907;50.806;12.882;2023-08-06T16:16:14;586.1;;;533.8;;
68872;SDS011;55907;50.806;12.882;2023-08-06T16:19:15;599.9;;;546.2;;
68872;SDS011;55907;50.806;12.882;2023-08-06T16:22:17;605.9;;;552.1;;
68872;SDS011;55907;50.806;12.882;2023-08-06T16:25:18;600.7;;;547.8;;
68872;SDS011;55907;50.806;12.882;2023-08-06T16:28:20;601.6;;;548.9;;
68872;SDS011;55907;50.806;12.882;2023-08-06T16:31:21;595.8;;;544.4;;
68872;SDS011;55907;50.806;12.882;2023-08-06T16:34:22;604.5;;;552.8;;
68872;SDS011;55907;50.806;12.882;2023-08-06T16:37:24;607.0;;;555.6;;
68872;SDS011;55907;50.806;12.882;2023-08-06T16:40:25;611.0;;;559.4;;
68872;SDS011;55907;50.806;12.882;2023-08-06T16:43:27;615.8;;;564.2;;
68872;SDS011;55907;50.806;12.882;2023-08-06T16:46:28;629.3;;;577.8;;
68872;SDS011;55907;50.806;12.882;2023-08-06T16:49:29;652.5;;;599.8;;
68872;SDS011;55907;50.806;12.882;2023-08-06T16:52:31;658.1;;;606.2;;
68872;SDS011;55907;50.806;12.882;2023-08-06T16:55:32;649.9;;;600.0;;
68872;SDS011;55907;50.806;12.882;2023-08-06T16:58:34;660.6;;;610.5;;
68872;SDS011;55907;50.806;12.882;2023-08-06T17:01:35;685.3;;;633.7;;
68872;SDS011;55907;50.806;12.882;2023-08-06T17:04:36;690.7;;;638.9;;
68872;SDS011;55907;50.806;12.882;2023-08-06T17:07:38;717.1;;;663.2;;
68872;SDS011;55907;50.806;12.882;2023-08-06T17:10:39;701.6;;;648.8;;
68872;SDS011;55907;50.806;12.882;2023-08-06T17:13:41;698.8;;;646.9;;
68872;SDS011;55907;50.806;12.882;2023-08-06T17:16:42;699.4;;;648.1;;
68872;SDS011;55907;50.806;12.882;2023-08-06T17:19:43;681.8;;;632.1;;
68872;SDS011;55907;50.806;12.882;2023-08-06T17:22:45;677.3;;;628.4;;
68872;SDS011;55907;50.806;12.882;2023-08-06T17:25:46;646.4;;;600.0;;
68872;SDS011;55907;50.806;12.882;2023-08-06T17:28:48;638.6;;;592.2;;
68872;SDS011;55907;50.806;12.882;2023-08-06T17:31:49;596.5;;;551.4;;
68872;SDS011;55907;50.806;12.882;2023-08-06T17:34:50;516.7;;;475.2;;
68872;SDS011;55907;50.806;12.882;2023-08-06T17:37:52;474.2;;;433.4;;